Time;durP1;ratioP1;P1;durP2;ratioP2;P2;SDS_P1;SDS_P2;PMS_P1;PMS_P2;Temp;Humidity;BMP_temperature;BMP_pressure;BME280_temperature;BME280_humidity;BME280_pressure;Samples;Min_cycle;Max_cycle;Signal;HPM_P1;HPM_P2
2023/11/25 00:02:06;;;;;;;5.93;3.60;;;;;;;;;;5182743;28;20074;-56
2023/11/25 00:04:38;;;;;;;9.20;3.97;;;;;;;;;;5182332;28;20041;-58
2023/11/25 00:07:09;;;;;;;9.60;4.70;;;;;;;;;;5182865;28;20033;-57
2023/11/25 00:09:41;;;;;;;9.18;5.22;;;;;;;;;;5183060;28;20037;-56
2023/11/25 00:12:12;;;;;;;8.60;4.55;;;;;;;;;;5183168;28;20495;-56
2023/11/25 00:14:43;;;;;;;8.65;4.63;;;;;;;;;;5182512;28;20042;-56
2023/11/25 00:17:15;;;;;;;9.57;4.80;;;;;;;;;;5166104;28;20092;-56
2023/11/25 00:19:46;;;;;;;10.47;5.07;;;;;;;;;;5182312;28;20100;-57
2023/11/25 00:22:17;;;;;;;8.77;4.50;;;;;;;;;;5182052;28;20092;-56
2023/11/25 00:24:51;;;;;;;9.05;4.43;;;;;;;;;;5181630;28;20037;-56
2023/11/25 00:27:22;;;;;;;6.22;3.60;;;;;;;;;;5182235;28;20037;-57
2023/11/25 00:29:53;;;;;;;9.27;4.13;;;;;;;;;;5181464;28;20033;-57
2023/11/25 00:32:25;;;;;;;8.95;3.90;;;;;;;;;;5165876;28;20502;-58
2023/11/25 00:34:56;;;;;;;8.85;3.47;;;;;;;;;;5166198;28;20388;-58
2023/11/25 00:37:27;;;;;;;10.90;3.97;;;;;;;;;;5182666;28;20113;-59
2023/11/25 00:40:01;;;;;;;8.43;3.70;;;;;;;;;;5181595;28;20044;-58
2023/11/25 00:42:34;;;;;;;8.98;4.45;;;;;;;;;;5165101;28;20064;-58
2023/11/25 00:45:05;;;;;;;9.05;3.88;;;;;;;;;;5181478;28;20042;-57
2023/11/25 00:47:39;;;;;;;10.10;3.97;;;;;;;;;;5182031;28;20069;-57
2023/11/25 00:50:11;;;;;;;9.63;4.13;;;;;;;;;;5181927;28;20045;-58
2023/11/25 00:52:42;;;;;;;8.88;4.25;;;;;;;;;;5181525;28;20046;-58
2023/11/25 00:55:13;;;;;;;10.98;4.65;;;;;;;;;;5181201;28;20053;-58
2023/11/25 00:57:44;;;;;;;9.45;4.60;;;;;;;;;;5181684;28;20116;-56
2023/11/25 01:00:16;;;;;;;8.38;4.60;;;;;;;;;;5180736;28;20121;-57
2023/11/25 01:02:47;;;;;;;9.52;4.78;;;;;;;;;;5181351;28;20034;-56
2023/11/25 01:05:18;;;;;;;10.25;4.53;;;;;;;;;;5181433;28;20044;-56
2023/11/25 01:07:49;;;;;;;9.00;4.22;;;;;;;;;;5165026;28;20042;-56
2023/11/25 01:10:20;;;;;;;8.75;4.75;;;;;;;;;;5165318;28;20041;-60
2023/11/25 01:12:51;;;;;;;10.75;4.97;;;;;;;;;;5181855;28;20038;-60
2023/11/25 01:15:24;;;;;;;7.85;4.57;;;;;;;;;;5165360;28;20366;-60
2023/11/25 01:17:55;;;;;;;9.07;4.65;;;;;;;;;;5165642;28;20498;-60
2023/11/25 01:20:26;;;;;;;8.30;3.90;;;;;;;;;;5181773;28;20040;-60
2023/11/25 01:22:57;;;;;;;8.70;4.72;;;;;;;;;;5165360;28;20506;-60
2023/11/25 01:25:29;;;;;;;7.70;3.95;;;;;;;;;;5181780;28;20121;-60
2023/11/25 01:28:00;;;;;;;8.43;5.00;;;;;;;;;;5165175;28;20133;-60
2023/11/25 01:30:31;;;;;;;8.35;4.30;;;;;;;;;;5164573;28;20034;-60
2023/11/25 01:33:06;;;;;;;9.52;5.43;;;;;;;;;;5181815;28;20129;-58
2023/11/25 01:35:41;;;;;;;9.48;5.30;;;;;;;;;;5181714;28;20046;-58
2023/11/25 01:38:13;;;;;;;12.27;5.05;;;;;;;;;;5165584;28;20509;-58
2023/11/25 01:40:44;;;;;;;10.63;5.32;;;;;;;;;;5181676;28;20149;-58
2023/11/25 01:43:15;;;;;;;8.27;4.88;;;;;;;;;;5181495;28;20095;-58
2023/11/25 01:45:49;;;;;;;7.65;4.93;;;;;;;;;;5184033;28;20033;-57
2023/11/25 01:48:20;;;;;;;10.77;5.43;;;;;;;;;;5169173;28;20038;-58
2023/11/25 01:50:52;;;;;;;11.27;4.78;;;;;;;;;;5185452;28;20038;-59
2023/11/25 01:53:23;;;;;;;9.88;4.97;;;;;;;;;;5183347;28;20041;-59
2023/11/25 01:55:55;;;;;;;10.40;5.30;;;;;;;;;;5185838;28;20073;-59
2023/11/25 01:58:26;;;;;;;8.82;4.90;;;;;;;;;;5185062;28;20042;-58
2023/11/25 02:00:57;;;;;;;11.27;5.80;;;;;;;;;;5169736;28;20499;-59
2023/11/25 02:03:28;;;;;;;8.52;4.90;;;;;;;;;;5185974;28;20515;-58
2023/11/25 02:06:00;;;;;;;9.85;5.45;;;;;;;;;;5185290;28;20045;-58
2023/11/25 02:08:31;;;;;;;9.52;5.00;;;;;;;;;;5185693;28;20104;-59
2023/11/25 02:11:02;;;;;;;10.43;4.78;;;;;;;;;;5185657;28;20048;-58
2023/11/25 02:13:33;;;;;;;9.48;5.18;;;;;;;;;;5185896;28;20053;-59
2023/11/25 02:16:04;;;;;;;9.48;4.25;;;;;;;;;;5185609;28;20046;-58
2023/11/25 02:18:36;;;;;;;8.30;4.50;;;;;;;;;;5185702;28;20042;-58
2023/11/25 02:21:09;;;;;;;10.52;4.97;;;;;;;;;;5185144;28;20115;-58
2023/11/25 02:23:40;;;;;;;10.48;4.78;;;;;;;;;;5185238;28;20115;-58
2023/11/25 02:26:11;;;;;;;10.95;4.45;;;;;;;;;;5185383;28;20081;-58
2023/11/25 02:28:43;;;;;;;12.35;4.50;;;;;;;;;;5184358;28;20034;-58
2023/11/25 02:31:15;;;;;;;10.93;4.93;;;;;;;;;;5185415;28;20049;-58
2023/11/25 02:33:46;;;;;;;9.65;4.68;;;;;;;;;;5201815;28;20092;-56
2023/11/25 02:36:17;;;;;;;7.93;4.15;;;;;;;;;;5185070;28;20115;-58
2023/11/25 02:38:49;;;;;;;9.40;4.65;;;;;;;;;;5169263;28;20547;-58
2023/11/25 02:41:20;;;;;;;9.63;4.97;;;;;;;;;;5184547;28;20061;-58
2023/11/25 02:43:51;;;;;;;7.55;4.80;;;;;;;;;;5168618;28;20137;-58
2023/11/25 02:46:23;;;;;;;9.10;4.47;;;;;;;;;;5185033;28;20042;-58
2023/11/25 02:48:54;;;;;;;8.35;4.75;;;;;;;;;;5169094;28;20630;-58
2023/11/25 02:51:26;;;;;;;9.27;5.55;;;;;;;;;;5168050;28;20080;-58
2023/11/25 02:53:57;;;;;;;9.38;5.25;;;;;;;;;;5185262;28;20580;-58
2023/11/25 02:56:28;;;;;;;8.40;5.03;;;;;;;;;;5184772;28;20489;-58
2023/11/25 02:59:00;;;;;;;11.43;5.47;;;;;;;;;;5183828;28;20058;-58
2023/11/25 03:01:32;;;;;;;10.95;5.28;;;;;;;;;;5184084;28;20069;-58
2023/11/25 03:04:05;;;;;;;10.93;4.88;;;;;;;;;;5184473;28;20046;-58
2023/11/25 03:06:37;;;;;;;7.32;4.78;;;;;;;;;;5168331;28;20041;-58
2023/11/25 03:09:11;;;;;;;9.45;5.47;;;;;;;;;;5168636;28;20370;-59
2023/11/25 03:11:42;;;;;;;8.82;5.07;;;;;;;;;;5184399;28;20128;-59
2023/11/25 03:14:15;;;;;;;10.52;5.00;;;;;;;;;;5184614;28;20050;-58
2023/11/25 03:16:47;;;;;;;9.52;4.93;;;;;;;;;;5167785;28;20050;-58
2023/11/25 03:19:18;;;;;;;8.48;4.43;;;;;;;;;;5184171;28;20125;-58
2023/11/25 03:21:50;;;;;;;9.05;4.65;;;;;;;;;;5184671;28;20544;-58
2023/11/25 03:24:24;;;;;;;8.40;5.15;;;;;;;;;;5184212;28;20089;-58
2023/11/25 03:26:56;;;;;;;8.27;4.72;;;;;;;;;;5168197;28;20443;-58
2023/11/25 03:29:27;;;;;;;;;;;;;;;;;;5183519;28;20100;-59
2023/11/25 03:31:59;;;;;;;10.55;4.85;;;;;;;;;;5167800;28;19925;-58
2023/11/25 03:34:30;;;;;;;9.38;4.65;;;;;;;;;;5200745;28;20345;-58
2023/11/25 03:37:02;;;;;;;10.05;4.53;;;;;;;;;;5167793;28;20492;-58
2023/11/25 03:39:33;;;;;;;;;;;;;;;;;;5184535;28;20128;-57
2023/11/25 03:42:05;;;;;;;10.07;4.57;;;;;;;;;;5167551;28;20212;-57
2023/11/25 03:44:36;;;;;;;11.43;4.50;;;;;;;;;;5183753;28;20176;-58
2023/11/25 03:47:10;;;;;;;9.95;4.72;;;;;;;;;;5167748;28;20073;-58
2023/11/25 03:49:41;;;;;;;9.88;4.53;;;;;;;;;;5183715;28;20075;-58
2023/11/25 03:52:12;;;;;;;7.20;4.50;;;;;;;;;;5167460;28;20034;-58
2023/11/25 03:54:43;;;;;;;10.32;5.13;;;;;;;;;;5183767;28;20074;-58
2023/11/25 03:57:14;;;;;;;10.73;5.07;;;;;;;;;;5183855;28;20421;-60
2023/11/25 03:59:45;;;;;;;11.55;5.28;;;;;;;;;;5182983;28;20052;-57
2023/11/25 04:02:17;;;;;;;8.07;5.10;;;;;;;;;;5183589;28;20049;-57
2023/11/25 04:04:48;;;;;;;7.50;5.10;;;;;;;;;;5183480;28;20158;-58
2023/11/25 04:07:19;;;;;;;9.90;5.47;;;;;;;;;;5182079;28;20038;-58
2023/11/25 04:09:51;;;;;;;10.57;5.40;;;;;;;;;;5183917;28;20050;-61
2023/11/25 04:12:23;;;;;;;7.07;4.93;;;;;;;;;;5167133;28;20095;-58
2023/11/25 04:14:54;;;;;;;8.00;5.47;;;;;;;;;;5166965;28;20077;-58
2023/11/25 04:17:26;;;;;;;6.95;4.75;;;;;;;;;;5183175;28;20046;-57
2023/11/25 04:19:57;;;;;;;8.68;4.63;;;;;;;;;;5183037;28;20057;-58
2023/11/25 04:22:28;;;;;;;11.10;5.32;;;;;;;;;;5182856;28;20503;-57
2023/11/25 04:24:59;;;;;;;8.00;5.47;;;;;;;;;;5182976;28;20504;-57
2023/11/25 04:27:31;;;;;;;10.30;5.20;;;;;;;;;;5166508;28;20092;-57
2023/11/25 04:30:04;;;;;;;12.05;4.95;;;;;;;;;;5182444;28;20078;-58
2023/11/25 04:32:36;;;;;;;10.05;4.57;;;;;;;;;;5166418;28;20034;-59
2023/11/25 04:35:08;;;;;;;9.20;5.05;;;;;;;;;;5182921;28;20057;-60
2023/11/25 04:37:41;;;;;;;9.52;4.97;;;;;;;;;;5183150;28;20512;-57
2023/11/25 04:40:13;;;;;;;10.55;5.05;;;;;;;;;;5166845;28;20488;-57
2023/11/25 04:42:44;;;;;;;9.65;5.10;;;;;;;;;;5182604;28;20048;-57
2023/11/25 04:45:16;;;;;;;10.20;4.85;;;;;;;;;;5182730;28;20034;-57
2023/11/25 04:47:49;;;;;;;11.52;5.45;;;;;;;;;;5182941;28;20046;-57
2023/11/25 04:50:22;;;;;;;7.88;4.43;;;;;;;;;;5182469;28;20049;-57
2023/11/25 04:52:53;;;;;;;8.48;5.20;;;;;;;;;;5166429;28;20037;-58
2023/11/25 04:55:27;;;;;;;7.27;4.80;;;;;;;;;;5166702;28;20089;-57
2023/11/25 04:57:58;;;;;;;8.18;4.65;;;;;;;;;;5183154;28;20366;-57
2023/11/25 05:00:29;;;;;;;13.90;5.47;;;;;;;;;;5165703;28;20133;-58
2023/11/25 05:03:00;;;;;;;11.48;5.35;;;;;;;;;;5166266;28;20038;-58
2023/11/25 05:05:32;;;;;;;10.82;5.35;;;;;;;;;;5155478;28;20132;-58
2023/11/25 05:08:04;;;;;;;13.02;5.25;;;;;;;;;;5146479;28;20034;-60
2023/11/25 05:10:36;;;;;;;9.43;4.97;;;;;;;;;;5162608;28;20389;-60
2023/11/25 05:13:07;;;;;;;12.57;5.38;;;;;;;;;;5170738;28;20038;-60
2023/11/25 05:15:38;;;;;;;11.35;5.22;;;;;;;;;;5181365;28;20148;-60
2023/11/25 05:18:10;;;;;;;11.00;5.45;;;;;;;;;;5182391;28;20141;-60
2023/11/25 05:20:41;;;;;;;12.13;5.30;;;;;;;;;;5182300;28;20038;-60
2023/11/25 05:23:12;;;;;;;9.60;5.25;;;;;;;;;;5181649;28;20148;-59
2023/11/25 05:25:43;;;;;;;10.05;4.63;;;;;;;;;;5182605;28;20516;-60
2023/11/25 05:28:14;;;;;;;8.52;5.32;;;;;;;;;;5182408;28;20061;-60
2023/11/25 05:30:45;;;;;;;9.60;5.32;;;;;;;;;;5182142;28;20042;-60
2023/11/25 05:33:16;;;;;;;10.00;5.10;;;;;;;;;;5165460;28;20168;-59
2023/11/25 05:35:48;;;;;;;10.20;5.47;;;;;;;;;;5165439;28;20046;-59
2023/11/25 05:38:19;;;;;;;11.23;5.70;;;;;;;;;;5182239;28;20068;-59
2023/11/25 05:40:52;;;;;;;8.05;4.80;;;;;;;;;;5166293;28;20395;-59
2023/11/25 05:43:25;;;;;;;13.73;5.55;;;;;;;;;;5181993;28;20120;-59
2023/11/25 05:45:58;;;;;;;8.88;5.10;;;;;;;;;;5165704;28;20049;-59
2023/11/25 05:48:29;;;;;;;12.63;5.55;;;;;;;;;;5182133;28;20143;-59
2023/11/25 05:51:00;;;;;;;10.32;5.20;;;;;;;;;;5182535;28;20384;-59
2023/11/25 05:53:31;;;;;;;10.57;5.35;;;;;;;;;;5165601;28;20045;-59
2023/11/25 05:56:02;;;;;;;12.93;5.72;;;;;;;;;;5182574;28;20523;-59
2023/11/25 05:58:33;;;;;;;10.05;4.22;;;;;;;;;;5181080;28;20046;-59
2023/11/25 06:01:05;;;;;;;8.32;4.53;;;;;;;;;;5181975;28;20180;-60
2023/11/25 06:03:42;;;;;;;8.90;4.88;;;;;;;;;;5181019;28;20444;-59
2023/11/25 06:06:14;;;;;;;9.52;5.13;;;;;;;;;;5182061;28;20065;-61
2023/11/25 06:08:45;;;;;;;;;;;;;;;;;;5182316;28;20093;-60
2023/11/25 06:11:20;;;;;;;11.60;4.53;;;;;;;;;;5182519;28;20000;-58
2023/11/25 06:13:53;;;;;;;8.90;5.15;;;;;;;;;;5182702;28;20404;-57
2023/11/25 06:16:24;;;;;;;8.90;5.35;;;;;;;;;;5181906;28;20046;-57
2023/11/25 06:18:56;;;;;;;8.10;4.77;;;;;;;;;;5181383;28;20037;-57
2023/11/25 06:21:27;;;;;;;8.10;4.82;;;;;;;;;;5165676;28;20056;-59
2023/11/25 06:24:00;;;;;;;11.50;4.70;;;;;;;;;;5165477;28;20081;-57
2023/11/25 06:26:31;;;;;;;11.50;4.32;;;;;;;;;;5165567;28;20045;-58
2023/11/25 06:29:02;;;;;;;10.70;5.13;;;;;;;;;;5164800;28;20348;-57
2023/11/25 06:31:35;;;;;;;9.82;4.93;;;;;;;;;;5167638;28;20488;-57
2023/11/25 06:34:06;;;;;;;6.82;4.05;;;;;;;;;;5169216;28;20045;-57
2023/11/25 06:36:38;;;;;;;9.75;5.15;;;;;;;;;;5168733;28;20123;-56
2023/11/25 06:39:11;;;;;;;8.63;4.82;;;;;;;;;;5185457;28;20080;-58
2023/11/25 06:41:48;;;;;;;8.23;4.78;;;;;;;;;;5168808;28;20053;-57
2023/11/25 06:44:20;;;;;;;9.35;5.00;;;;;;;;;;5168670;28;20087;-57
2023/11/25 06:46:51;;;;;;;9.57;4.77;;;;;;;;;;5184944;28;20030;-57
2023/11/25 06:49:22;;;;;;;9.70;4.22;;;;;;;;;;5169157;28;20445;-57
2023/11/25 06:51:53;;;;;;;6.93;4.22;;;;;;;;;;5184929;28;20124;-57
2023/11/25 06:54:24;;;;;;;9.25;3.97;;;;;;;;;;5185251;28;20575;-57
2023/11/25 06:56:55;;;;;;;8.82;4.30;;;;;;;;;;5184884;28;20053;-59
2023/11/25 06:59:26;;;;;;;13.85;4.72;;;;;;;;;;5183947;28;20034;-59
2023/11/25 07:01:57;;;;;;;9.32;4.15;;;;;;;;;;5184789;28;20038;-59
2023/11/25 07:04:29;;;;;;;9.77;4.03;;;;;;;;;;5168460;28;20046;-59
2023/11/25 07:07:00;;;;;;;7.05;4.00;;;;;;;;;;5184574;28;20128;-57
2023/11/25 07:09:31;;;;;;;7.10;4.50;;;;;;;;;;5167774;28;20128;-55
2023/11/25 07:12:04;;;;;;;7.05;3.90;;;;;;;;;;5168374;28;20089;-56
2023/11/25 07:14:35;;;;;;;5.70;3.35;;;;;;;;;;5184644;28;20053;-58
2023/11/25 07:17:06;;;;;;;8.32;4.10;;;;;;;;;;5183638;28;20044;-56
2023/11/25 07:19:39;;;;;;;7.80;3.67;;;;;;;;;;5184439;28;20041;-56
2023/11/25 07:22:11;;;;;;;8.07;4.00;;;;;;;;;;5184220;28;20147;-56
2023/11/25 07:24:44;;;;;;;6.93;3.42;;;;;;;;;;5183911;28;20404;-57
2023/11/25 07:27:18;;;;;;;8.32;4.30;;;;;;;;;;5168460;28;20037;-57
2023/11/25 07:29:49;;;;;;;8.73;5.00;;;;;;;;;;5183316;28;20046;-56
2023/11/25 07:32:22;;;;;;;10.88;4.10;;;;;;;;;;5167784;28;20444;-56
2023/11/25 07:34:53;;;;;;;7.90;3.80;;;;;;;;;;5183896;28;20049;-57
2023/11/25 07:37:24;;;;;;;9.68;4.65;;;;;;;;;;5183644;28;20060;-57
2023/11/25 07:39:55;;;;;;;8.65;4.65;;;;;;;;;;5184046;28;20057;-57
2023/11/25 07:42:27;;;;;;;13.18;4.82;;;;;;;;;;5167828;28;20129;-57
2023/11/25 07:44:58;;;;;;;12.38;5.05;;;;;;;;;;5183274;28;20037;-57
2023/11/25 07:47:29;;;;;;;11.68;4.70;;;;;;;;;;5182241;28;20034;-57
2023/11/25 07:50:00;;;;;;;10.80;4.82;;;;;;;;;;5167066;28;20045;-58
2023/11/25 07:52:31;;;;;;;13.32;4.40;;;;;;;;;;5183457;28;20041;-57
2023/11/25 07:55:04;;;;;;;10.68;4.68;;;;;;;;;;5183524;28;20069;-57
2023/11/25 07:57:35;;;;;;;10.88;4.60;;;;;;;;;;5183996;28;20384;-60
2023/11/25 08:00:06;;;;;;;8.25;4.47;;;;;;;;;;5182862;28;20099;-60
2023/11/25 08:02:37;;;;;;;10.27;3.87;;;;;;;;;;5167010;28;20492;-58
2023/11/25 08:05:10;;;;;;;7.50;4.00;;;;;;;;;;5183516;28;20049;-59
2023/11/25 08:07:42;;;;;;;10.55;4.03;;;;;;;;;;5183348;28;20144;-58
2023/11/25 08:10:15;;;;;;;8.25;4.68;;;;;;;;;;5183292;28;20128;-57
2023/11/25 08:12:47;;;;;;;7.60;4.13;;;;;;;;;;5182888;28;20077;-61
2023/11/25 08:15:18;;;;;;;7.65;4.25;;;;;;;;;;5182978;28;20046;-61
2023/11/25 08:17:49;;;;;;;7.50;4.07;;;;;;;;;;5182913;28;20077;-61
2023/11/25 08:20:20;;;;;;;7.32;3.83;;;;;;;;;;5166865;28;20046;-61
2023/11/25 08:22:52;;;;;;;7.88;4.30;;;;;;;;;;5166837;28;20511;-61
2023/11/25 08:25:23;;;;;;;13.15;4.63;;;;;;;;;;5166184;28;20045;-61
2023/11/25 08:27:54;;;;;;;9.00;4.10;;;;;;;;;;5182250;28;20184;-61
2023/11/25 08:30:26;;;;;;;8.70;4.85;;;;;;;;;;5181384;28;20044;-57
2023/11/25 08:32:57;;;;;;;10.48;4.85;;;;;;;;;;5181817;28;20042;-58
2023/11/25 08:35:28;;;;;;;13.00;4.68;;;;;;;;;;5165327;28;20042;-57
2023/11/25 08:37:59;;;;;;;11.07;4.60;;;;;;;;;;5165601;28;20488;-57
2023/11/25 08:40:30;;;;;;;12.38;4.50;;;;;;;;;;5165011;28;20042;-57
2023/11/25 08:43:08;;;;;;;8.00;4.13;;;;;;;;;;5164993;28;20196;-57
2023/11/25 08:45:39;;;;;;;10.95;4.68;;;;;;;;;;5195555;28;20042;-57
2023/11/25 08:48:11;;;;;;;8.93;4.82;;;;;;;;;;5181451;28;20038;-59
2023/11/25 08:50:42;;;;;;;11.13;4.10;;;;;;;;;;5181499;28;20113;-59
2023/11/25 08:53:15;;;;;;;7.57;4.35;;;;;;;;;;5181106;28;20030;-59
2023/11/25 08:55:46;;;;;;;9.02;4.90;;;;;;;;;;5165053;28;20037;-59
2023/11/25 08:58:17;;;;;;;10.00;5.05;;;;;;;;;;5180957;28;20034;-59
2023/11/25 09:00:51;;;;;;;8.52;4.47;;;;;;;;;;5180707;28;20213;-59
2023/11/25 09:03:23;;;;;;;10.00;4.78;;;;;;;;;;5181981;28;20493;-58
2023/11/25 09:05:54;;;;;;;9.65;4.68;;;;;;;;;;5165117;28;20041;-58
2023/11/25 09:08:25;;;;;;;9.68;4.90;;;;;;;;;;5181758;28;20101;-56
2023/11/25 09:10:57;;;;;;;10.82;5.28;;;;;;;;;;5165374;28;20448;-56
2023/11/25 09:13:28;;;;;;;10.57;5.47;;;;;;;;;;5182093;28;20056;-56
2023/11/25 09:16:00;;;;;;;10.07;5.80;;;;;;;;;;5181463;28;20050;-59
2023/11/25 09:18:32;;;;;;;13.32;5.75;;;;;;;;;;5164807;28;20119;-58
2023/11/25 09:21:03;;;;;;;13.07;6.25;;;;;;;;;;5165080;28;20046;-58
2023/11/25 09:23:34;;;;;;;24.98;6.63;;;;;;;;;;5165873;28;20408;-59
2023/11/25 09:26:06;;;;;;;9.10;5.22;;;;;;;;;;5182365;28;20044;-59
2023/11/25 09:28:37;;;;;;;9.90;5.28;;;;;;;;;;5180485;28;20135;-59
2023/11/25 09:31:08;;;;;;;10.70;5.63;;;;;;;;;;5181196;28;20416;-59
2023/11/25 09:33:39;;;;;;;11.10;6.00;;;;;;;;;;5182153;28;20065;-59
2023/11/25 09:36:10;;;;;;;10.83;6.47;;;;;;;;;;5181976;28;20931;-59
2023/11/25 09:38:42;;;;;;;11.95;6.15;;;;;;;;;;5182019;28;20056;-56
2023/11/25 09:41:14;;;;;;;15.05;6.85;;;;;;;;;;5181820;28;20057;-55
2023/11/25 09:43:45;;;;;;;12.00;6.53;;;;;;;;;;5182189;28;20045;-55
2023/11/25 09:46:16;;;;;;;14.60;6.85;;;;;;;;;;5181957;28;20045;-56
2023/11/25 09:48:48;;;;;;;13.18;7.05;;;;;;;;;;5182210;28;20044;-56
2023/11/25 09:51:24;;;;;;;9.82;5.78;;;;;;;;;;5166001;28;20559;-56
2023/11/25 09:53:57;;;;;;;11.88;6.93;;;;;;;;;;5183130;28;20485;-56
2023/11/25 09:56:28;;;;;;;13.93;7.05;;;;;;;;;;5180639;28;20042;-58
2023/11/25 09:58:59;;;;;;;12.35;6.35;;;;;;;;;;5173872;28;20053;-58
2023/11/25 10:01:32;;;;;;;12.88;6.20;;;;;;;;;;5181788;28;20041;-58
2023/11/25 10:04:03;;;;;;;10.93;5.97;;;;;;;;;;5180967;28;20149;-59
2023/11/25 10:06:34;;;;;;;11.63;6.55;;;;;;;;;;5184047;28;20044;-59
2023/11/25 10:09:09;;;;;;;15.30;6.85;;;;;;;;;;5168142;28;20038;-58
2023/11/25 10:11:42;;;;;;;9.13;5.70;;;;;;;;;;5168845;28;20590;-59
2023/11/25 10:14:17;;;;;;;10.30;5.72;;;;;;;;;;5185851;28;20050;-58
2023/11/25 10:16:48;;;;;;;21.73;7.10;;;;;;;;;;5185695;28;20046;-55
2023/11/25 10:19:23;;;;;;;15.27;6.53;;;;;;;;;;5185484;28;20041;-55
2023/11/25 10:21:56;;;;;;;12.10;7.00;;;;;;;;;;5186350;28;20125;-55
2023/11/25 10:24:28;;;;;;;12.52;6.63;;;;;;;;;;5168985;28;20053;-56
2023/11/25 10:26:59;;;;;;;18.02;6.65;;;;;;;;;;5185728;28;20072;-56
2023/11/25 10:29:32;;;;;;;22.70;8.15;;;;;;;;;;5184776;28;20037;-55
2023/11/25 10:32:04;;;;;;;16.77;7.47;;;;;;;;;;5183116;28;20061;-57
2023/11/25 10:34:36;;;;;;;15.40;7.50;;;;;;;;;;5183535;28;20468;-55
2023/11/25 10:37:09;;;;;;;15.43;7.15;;;;;;;;;;5184270;28;20049;-55
2023/11/25 10:39:40;;;;;;;16.80;7.40;;;;;;;;;;5167153;28;20046;-55
2023/11/25 10:42:11;;;;;;;14.85;6.97;;;;;;;;;;5167517;28;20045;-56
2023/11/25 10:44:42;;;;;;;;;;;;;;;;;;5184593;28;20061;-56
2023/11/25 10:47:36;;;;;;;16.77;7.25;;;;;;;;;;5185035;28;19940;-57
2023/11/25 10:50:07;;;;;;;22.20;8.77;;;;;;;;;;5184810;28;20408;-57
2023/11/25 10:52:40;;;;;;;15.48;7.80;;;;;;;;;;5183924;28;20056;-54
2023/11/25 10:55:12;;;;;;;24.15;8.10;;;;;;;;;;5168749;28;20397;-55
2023/11/25 10:57:45;;;;;;;12.57;7.00;;;;;;;;;;5184674;28;20377;-56
2023/11/25 11:00:17;;;;;;;14.63;7.28;;;;;;;;;;5184258;28;20400;-56
2023/11/25 11:02:54;;;;;;;13.63;6.90;;;;;;;;;;5183709;28;20048;-60
2023/11/25 11:05:32;;;;;;;16.20;7.97;;;;;;;;;;5182849;28;20057;-59
2023/11/25 11:08:06;;;;;;;13.65;7.43;;;;;;;;;;5181550;28;20030;-59
2023/11/25 11:10:42;;;;;;;15.55;7.53;;;;;;;;;;5168239;28;20042;-59
2023/11/25 11:13:17;;;;;;;20.20;8.18;;;;;;;;;;5167490;28;20033;-60
2023/11/25 11:15:51;;;;;;;14.93;7.53;;;;;;;;;;5167571;28;20050;-60
2023/11/25 11:18:30;;;;;;;16.58;8.68;;;;;;;;;;5183707;28;20038;-60
2023/11/25 11:21:01;;;;;;;19.40;7.82;;;;;;;;;;5183813;28;20038;-60
2023/11/25 11:23:36;;;;;;;;;;;;;;;;;;5184314;28;20418;-58
2023/11/25 11:26:11;;;;;;;15.88;7.63;;;;;;;;;;5167824;28;20288;-59
2023/11/25 11:29:01;;;;;;;13.02;7.15;;;;;;;;;;5183215;28;20040;-61
2023/11/25 11:31:47;;;;;;;13.68;8.10;;;;;;;;;;5182008;28;20045;-63
2023/11/25 11:34:18;;;;;;;16.88;8.10;;;;;;;;;;5182465;28;20041;-60
2023/11/25 11:36:51;;;;;;;14.80;7.90;;;;;;;;;;5183669;28;20081;-59
2023/11/25 11:39:32;;;;;;;19.85;8.63;;;;;;;;;;5183873;28;20038;-59
2023/11/25 11:42:22;;;;;;;12.27;7.07;;;;;;;;;;5168014;28;20049;-59
2023/11/25 11:45:18;;;;;;;19.45;7.28;;;;;;;;;;5184003;28;20038;-59
2023/11/25 11:47:54;;;;;;;19.95;7.75;;;;;;;;;;5164391;28;20042;-59
2023/11/25 11:50:29;;;;;;;18.58;8.63;;;;;;;;;;5164015;28;20058;-59
2023/11/25 11:53:00;;;;;;;25.27;8.20;;;;;;;;;;5164567;28;20038;-58
2023/11/25 11:55:40;;;;;;;17.92;8.60;;;;;;;;;;5167248;28;20077;-59
2023/11/25 11:58:16;;;;;;;24.13;8.60;;;;;;;;;;5183245;28;20555;-58
2023/11/25 12:00:48;;;;;;;22.08;8.48;;;;;;;;;;5182082;28;20046;-57
2023/11/25 12:03:20;;;;;;;20.40;9.27;;;;;;;;;;5183837;28;20033;-56
2023/11/25 12:05:51;;;;;;;21.75;10.00;;;;;;;;;;5183412;28;20176;-58
2023/11/25 12:08:23;;;;;;;19.95;9.45;;;;;;;;;;5167258;28;20036;-58
2023/11/25 12:10:54;;;;;;;20.92;8.88;;;;;;;;;;5166960;28;20046;-59
2023/11/25 12:13:26;;;;;;;23.67;10.55;;;;;;;;;;5167619;28;20488;-59
2023/11/25 12:16:03;;;;;;;18.10;9.68;;;;;;;;;;5180105;28;20050;-58
2023/11/25 12:18:35;;;;;;;20.92;10.15;;;;;;;;;;5167711;28;20087;-59
2023/11/25 12:21:08;;;;;;;20.88;9.27;;;;;;;;;;5166966;28;20046;-58
2023/11/25 12:23:39;;;;;;;24.30;11.02;;;;;;;;;;5167768;28;20497;-58
2023/11/25 12:26:11;;;;;;;22.67;10.37;;;;;;;;;;5183468;28;20041;-58
2023/11/25 12:28:45;;;;;;;22.92;10.10;;;;;;;;;;5181398;28;20066;-58
2023/11/25 12:31:16;;;;;;;22.80;10.32;;;;;;;;;;5164123;28;20038;-58
2023/11/25 12:33:48;;;;;;;19.50;10.10;;;;;;;;;;5175436;28;20104;-58
2023/11/25 12:36:21;;;;;;;19.10;10.48;;;;;;;;;;5181216;28;20128;-58
2023/11/25 12:38:53;;;;;;;23.63;10.00;;;;;;;;;;5182657;28;20444;-57
2023/11/25 12:41:24;;;;;;;18.58;9.75;;;;;;;;;;5182003;28;20049;-58
2023/11/25 12:44:15;;;;;;;16.07;9.63;;;;;;;;;;5165574;28;20042;-58
2023/11/25 12:47:05;;;;;;;22.20;9.95;;;;;;;;;;5181681;28;20057;-58
2023/11/25 12:49:37;;;;;;;18.70;10.25;;;;;;;;;;5180594;28;20120;-58
2023/11/25 12:52:18;;;;;;;20.60;10.73;;;;;;;;;;5182358;28;20132;-58
2023/11/25 12:54:52;;;;;;;25.33;11.25;;;;;;;;;;5182590;28;20046;-58
2023/11/25 12:57:29;;;;;;;22.50;10.75;;;;;;;;;;5166496;28;20048;-57
2023/11/25 13:00:08;;;;;;;19.27;10.65;;;;;;;;;;5182371;28;20122;-56
2023/11/25 13:02:45;;;;;;;22.48;11.73;;;;;;;;;;5165826;28;20430;-57
2023/11/25 13:05:24;;;;;;;24.48;12.23;;;;;;;;;;5182381;28;20041;-56
2023/11/25 13:07:55;;;;;;;19.33;12.02;;;;;;;;;;5183494;28;20459;-57
2023/11/25 13:10:26;;;;;;;23.63;11.17;;;;;;;;;;5166484;28;20534;-57
2023/11/25 13:12:57;;;;;;;20.77;11.17;;;;;;;;;;5183170;28;20480;-57
2023/11/25 13:15:28;;;;;;;22.35;11.00;;;;;;;;;;5182291;28;20310;-59
2023/11/25 13:17:59;;;;;;;20.83;11.40;;;;;;;;;;5166128;28;20129;-58
2023/11/25 13:20:31;;;;;;;24.65;11.25;;;;;;;;;;5165789;28;20279;-59
2023/11/25 13:23:02;;;;;;;24.95;10.90;;;;;;;;;;5181367;28;20053;-58
2023/11/25 13:25:33;;;;;;;25.27;10.43;;;;;;;;;;5166060;28;20400;-57
2023/11/25 13:28:05;;;;;;;23.70;10.73;;;;;;;;;;5182240;28;20267;-58
2023/11/25 13:30:36;;;;;;;18.88;10.88;;;;;;;;;;5182117;28;20100;-58
2023/11/25 13:33:08;;;;;;;25.83;10.45;;;;;;;;;;5182588;28;20084;-57
2023/11/25 13:35:39;;;;;;;27.88;11.23;;;;;;;;;;5181629;28;20038;-59
2023/11/25 13:38:15;;;;;;;22.23;11.07;;;;;;;;;;5181629;28;20157;-58
2023/11/25 13:40:47;;;;;;;23.10;10.93;;;;;;;;;;5184581;28;20453;-58
2023/11/25 13:43:20;;;;;;;20.05;9.85;;;;;;;;;;5186020;28;20412;-58
2023/11/25 13:45:51;;;;;;;21.48;10.60;;;;;;;;;;5185692;28;20048;-60
2023/11/25 13:48:22;;;;;;;27.13;11.90;;;;;;;;;;5169503;28;20096;-59
2023/11/25 13:50:53;;;;;;;18.87;9.87;;;;;;;;;;5169810;28;20038;-59
2023/11/25 13:53:25;;;;;;;20.58;10.05;;;;;;;;;;5169554;28;20052;-58
2023/11/25 13:55:56;;;;;;;22.63;10.63;;;;;;;;;;5170586;28;20152;-59
2023/11/25 13:58:27;;;;;;;20.55;9.98;;;;;;;;;;5185422;28;20354;-59
2023/11/25 14:00:58;;;;;;;22.77;10.47;;;;;;;;;;5185796;28;20034;-60
2023/11/25 14:03:29;;;;;;;19.97;8.73;;;;;;;;;;5185657;28;20034;-59
2023/11/25 14:06:00;;;;;;;25.67;8.77;;;;;;;;;;5185146;28;20283;-59
2023/11/25 14:08:32;;;;;;;18.05;8.35;;;;;;;;;;5185844;28;20271;-60
2023/11/25 14:11:05;;;;;;;22.73;9.07;;;;;;;;;;5169547;28;20038;-59
2023/11/25 14:13:37;;;;;;;20.52;8.90;;;;;;;;;;5185391;28;20342;-59
2023/11/25 14:16:09;;;;;;;20.65;7.28;;;;;;;;;;5168900;28;20105;-59
2023/11/25 14:18:40;;;;;;;19.05;8.90;;;;;;;;;;5185510;28;20049;-59
2023/11/25 14:21:13;;;;;;;19.63;8.15;;;;;;;;;;5169143;28;20103;-59
2023/11/25 14:23:44;;;;;;;15.95;7.93;;;;;;;;;;5185370;28;20038;-58
2023/11/25 14:26:15;;;;;;;18.90;7.75;;;;;;;;;;5185570;28;20547;-60
2023/11/25 14:28:46;;;;;;;16.47;7.67;;;;;;;;;;5184674;28;20044;-59
2023/11/25 14:31:18;;;;;;;16.83;8.37;;;;;;;;;;5185066;28;20077;-58
2023/11/25 14:33:49;;;;;;;15.48;7.45;;;;;;;;;;5169457;28;20051;-58
2023/11/25 14:36:20;;;;;;;16.97;7.90;;;;;;;;;;5185020;28;20125;-58
2023/11/25 14:38:51;;;;;;;39.00;20.58;;;;;;;;;;5168687;28;20041;-58
2023/11/25 14:41:23;;;;;;;22.70;10.17;;;;;;;;;;5184869;28;20041;-58
2023/11/25 14:43:54;;;;;;;19.67;9.20;;;;;;;;;;5185220;28;20081;-59
2023/11/25 14:46:25;;;;;;;19.80;6.90;;;;;;;;;;5183865;28;20044;-59
2023/11/25 14:48:59;;;;;;;16.80;8.23;;;;;;;;;;5184877;28;20569;-58
2023/11/25 14:51:30;;;;;;;22.23;8.40;;;;;;;;;;5168634;28;20042;-58
2023/11/25 14:54:01;;;;;;;16.53;7.57;;;;;;;;;;5182075;28;20457;-58
2023/11/25 14:56:33;;;;;;;12.90;6.68;;;;;;;;;;5169125;28;20046;-58
2023/11/25 14:59:05;;;;;;;16.73;6.32;;;;;;;;;;5167910;28;20048;-58
2023/11/25 15:01:36;;;;;;;21.65;6.80;;;;;;;;;;5184689;28;20656;-58
2023/11/25 15:04:08;;;;;;;14.87;6.70;;;;;;;;;;5183634;28;20077;-58
2023/11/25 15:06:39;;;;;;;16.52;6.90;;;;;;;;;;5183864;28;20096;-58